Airfield :
LOGIN :

Register | Disclaimer

   EN    FR    IT 

 










Legend :    VFR   Marginal VFR   IFR   Intensive IFR   Very Intensive IFR
Visi :
Ceiling :
>= 8 km
>= 3000ft
5 to 8 km
1000 to 3000 ft
1500m to 5 km
500 to 1000 ft
800 to 1500m
200 to 500 ft
< 800m
< 200 ft
Symbols :   Thunderstorms  Fog  Heavy snow  Heavy precipitations  Wind > 20 kt
SIGMETs :     Misc.  Thunderstorms  Icing  Turbulence  Mountain Waves  Volcanic Ashes






- Airport Elevation : 138 ft
- IATA code : BIO


LEBB - Bilbao

CURRENT METAR :
  • 280800Z 06003KT 020V100 9999 FEW030TCU SCT042 10/09 Q1022 TEMPO SHRA

EXPIRED METARs :
  • 280730Z 25001KT 9999 FEW036 09/08 Q1022 TEMPO SHRA FEW030TCU
  • 280700Z 26005KT 220V300 9999 FEW030TCU SCT050 10/09 Q1022 RESHRA TEMPO SHRA
  • 280630Z 30011G21KT 270V330 6000 SHRA FEW012 FEW028TCU SCT040 10/08 Q1022 TEMPO NSW
  • 280600Z 25007KT 180V290 9999 FEW030TCU SCT055 11/08 Q1021 TEMPO SHRA
  • 280530Z VRB02KT 9999 FEW030TCU SCT043 10/08 Q1021 RESHRA TEMPO SHRA
  • 280512Z 27005KT 220V310 9999 FEW030TCU SCT040 11/08 Q1021 RESHRA TEMPO SHRA

TAF TAF LEBB
Valid from the 28 at 06:00 until the 29 at 06:00 UTC


280500Z 2806/2906 27009KT 9999 FEW020 SCT040 TX14/2813Z TN10/2901Z
TEMPO 2806/2906 3000 RA BKN010
PROB40
TEMPO 2806/2824 1500 SHRA SCT030TCU
TEMPO 2811/2815 27015G25KT



MET'MAP, your aeronautical weather chart ! - Copyright ORBIFLY December 2007 - Disclaimer

ORBIFLY MET'MAP TEAM :

Programming & Development : Alexandra Zaïnal
Original concept : Baudouin d'Aumeries
Technical & hardware support : Manuel Goepfert
Assistance : Marc-Olivier Méhu




SOURCES & CREDITS :

   NOAA